No data was retrieved for https://query.yahooapis.com/v1/public/yql?q=select+%2A+from+weather.forecast+where+woeid%3D731260&format=xml&u=c



METAR rapporten vliegvelden

   
EHAM - Amsterdam
Gewijzigd: 29-03-2020 19:55
Gedeeltelijk bewolkt  
Gedeeltelijk bewolkt  
   Wind: NO 33.3 km/h<br />Gust to 33.3 km/h
Wind: NO 33.3 km/h
Gust to 33.3 km/h
Temperatuur: 4°C
Voelt als: -2°C
Dauwpunt: -7°C
Vochtigheid: 45%
Barometer: 1035 hPa
Bewolking: Gedeeltelijk bewolkt
Zicht: meer dan 10 km
Bewolking: Gedeeltelijk bewolkt 4500 ft
EHAM 291755Z 04018G28KT 360V070 9999 SCT045 04/M07 Q1035 NOSIG
EHBK - Maastricht
Gewijzigd: 29-03-2020 19:55
Bewolking  
Bewolking  
   Wind: NNO 33.3 km/h
Wind: NNO 33.3 km/h
Temperatuur: 4°C
Voelt als: -2°C
Dauwpunt: -4°C
Vochtigheid: 56%
Barometer: 1030 hPa
Bewolking: Bewolking
Zicht: meer dan 10 km
Bewolking: Gedeeltelijk bewolkt 4100 ft,
Bewolking 4700 ft
EHBK 291755Z AUTO 03018KT 360V060 9999 SCT041 OVC047 04/M04 Q1030 NOSIG
ELLX - Luxemburg
Gewijzigd: 29-03-2020 19:50
Grotendeels bewolkt  
Grotendeels bewolkt  
   Wind: NNO 31.5 km/h
Wind: NNO 31.5 km/h
Temperatuur: 2°C
Voelt als: -4°C
Dauwpunt: -3°C
Vochtigheid: 70%
Barometer: 1025 hPa
Bewolking: Grotendeels bewolkt
Zicht: meer dan 10 km
Bewolking: Licht bewolkt 2000 ft,
Grotendeels bewolkt 6000 ft
ELLX 291750Z 03017KT 9999 FEW020 BKN060 02/M03 Q1025 TEMPO 02020G30KT -SHSN FEW020TCU
EDDL - Dusseldorf
Gewijzigd: 29-03-2020 19:50
Licht bewolkt  
Licht bewolkt  
   Wind: NNO 25.9 km/h
Wind: NNO 25.9 km/h
Temperatuur: 4°C
Voelt als: -1°C
Dauwpunt: -3°C
Vochtigheid: 61%
Barometer: 1031 hPa
Bewolking: Licht bewolkt
Zicht: meer dan 10 km
Bewolking: Licht bewolkt 3800 ft
EDDL 291750Z 02014KT 9999 FEW038 04/M03 Q1031 NOSIG
  

Script ontwikkeld door  Saratoga-weather.org Aangepast voor de template door  Weerstation Leuven